Connelly Springs, North Carolina
Current Conditions -  °F | °C
As of 4:20 AM on Monday 22 Dec 2014 (Local Time) from KHKY Reporting Station
Haze Haze  
Wind Chill: 35°   Ceiling: 4500
Heat Index: 40°   Visibility: 7mi
Dew Point: 36°   Wind: 7mph
Humidity: 86%   Direction: 40°NE
Pressure: 30.11"   Gusts: NA
Location:  35.6588°N, 81.5286°W
Report Text: KHKY 220920Z AUTO 04006KT 7SM BR SCT025 OVC045 04/02 A3011 RMK AO2 RAE13 P0000 T00440022
Loading
Personal Weather Stations






























Interactive Weather Map New forecast layout! Learn more

10-Day Weather Forecast

Advertisements
Track Severe Weather on mobile